sensor_id;sensor_type;location;lat;lon;timestamp;pressure;altitude;pressure_sealevel;temperature;humidity
64211;BME280;50528;48.514;14.394;2023-04-09T00:00:03;94316.70;;;3.57;78.47
64211;BME280;50528;48.514;14.394;2023-04-09T00:01:08;94315.43;;;3.54;78.48
64211;BME280;50528;48.514;14.394;2023-04-09T00:01:42;94316.17;;;3.53;78.49
64211;BME280;50528;48.514;14.394;2023-04-09T00:02:16;94312.59;;;3.53;78.55
64211;BME280;50528;48.514;14.394;2023-04-09T00:02:50;94316.66;;;3.54;78.56
64211;BME280;50528;48.514;14.394;2023-04-09T00:03:23;94312.34;;;3.55;78.56
64211;BME280;50528;48.514;14.394;2023-04-09T00:03:57;94316.14;;;3.55;78.63
64211;BME280;50528;48.514;14.394;2023-04-09T00:04:31;94310.02;;;3.53;78.56
64211;BME280;50528;48.514;14.394;2023-04-09T00:05:05;94312.90;;;3.55;78.61
64211;BME280;50528;48.514;14.394;2023-04-09T00:05:39;94312.19;;;3.55;78.55
64211;BME280;50528;48.514;14.394;2023-04-09T00:06:13;94307.58;;;3.54;78.55
64211;BME280;50528;48.514;14.394;2023-04-09T00:06:47;94306.63;;;3.53;78.41
64211;BME280;50528;48.514;14.394;2023-04-09T00:07:20;94309.48;;;3.50;78.43
64211;BME280;50528;48.514;14.394;2023-04-09T00:07:54;94307.92;;;3.49;78.47
64211;BME280;50528;48.514;14.394;2023-04-09T00:08:28;94303.10;;;3.46;78.47
64211;BME280;50528;48.514;14.394;2023-04-09T00:09:02;94307.98;;;3.46;78.47
64211;BME280;50528;48.514;14.394;2023-04-09T00:09:35;94306.21;;;3.45;78.54
64211;BME280;50528;48.514;14.394;2023-04-09T00:10:09;94305.05;;;3.42;78.53
64211;BME280;50528;48.514;14.394;2023-04-09T00:10:42;94304.58;;;3.39;78.49
64211;BME280;50528;48.514;14.394;2023-04-09T00:11:16;94302.69;;;3.36;78.56
64211;BME280;50528;48.514;14.394;2023-04-09T00:11:55;94305.33;;;3.34;78.64
64211;BME280;50528;48.514;14.394;2023-04-09T00:12:33;94301.00;;;3.34;78.71
64211;BME280;50528;48.514;14.394;2023-04-09T00:13:07;94299.52;;;3.33;78.77
64211;BME280;50528;48.514;14.394;2023-04-09T00:13:40;94299.38;;;3.32;78.65
64211;BME280;50528;48.514;14.394;2023-04-09T00:14:14;94293.38;;;3.29;78.76
64211;BME280;50528;48.514;14.394;2023-04-09T00:14:47;94292.02;;;3.31;78.72
64211;BME280;50528;48.514;14.394;2023-04-09T00:15:21;94293.83;;;3.38;78.58
64211;BME280;50528;48.514;14.394;2023-04-09T00:16:03;94291.01;;;3.33;78.38
64211;BME280;50528;48.514;14.394;2023-04-09T00:16:37;94286.66;;;3.24;78.65
64211;BME280;50528;48.514;14.394;2023-04-09T00:17:10;94289.95;;;3.25;78.69
64211;BME280;50528;48.514;14.394;2023-04-09T00:17:44;94291.09;;;3.27;78.55
64211;BME280;50528;48.514;14.394;2023-04-09T00:18:18;94293.73;;;3.24;78.67
64211;BME280;50528;48.514;14.394;2023-04-09T00:18:51;94293.19;;;3.17;78.75
64211;BME280;50528;48.514;14.394;2023-04-09T00:19:25;94294.64;;;3.11;78.84
64211;BME280;50528;48.514;14.394;2023-04-09T00:19:59;94292.64;;;3.11;79.08
64211;BME280;50528;48.514;14.394;2023-04-09T00:20:32;94291.98;;;3.09;79.05
64211;BME280;50528;48.514;14.394;2023-04-09T00:21:06;94292.26;;;3.10;79.20
64211;BME280;50528;48.514;14.394;2023-04-09T00:21:41;94291.08;;;3.11;79.21
64211;BME280;50528;48.514;14.394;2023-04-09T00:22:14;94294.12;;;3.12;79.23
64211;BME280;50528;48.514;14.394;2023-04-09T00:22:48;94291.31;;;3.12;79.30
64211;BME280;50528;48.514;14.394;2023-04-09T00:23:22;94294.06;;;3.13;79.35
64211;BME280;50528;48.514;14.394;2023-04-09T00:23:57;94295.69;;;3.15;79.41
64211;BME280;50528;48.514;14.394;2023-04-09T00:24:30;94296.50;;;3.16;79.41
64211;BME280;50528;48.514;14.394;2023-04-09T00:25:04;94294.84;;;3.18;79.40
64211;BME280;50528;48.514;14.394;2023-04-09T00:25:38;94295.98;;;3.19;79.50
64211;BME280;50528;48.514;14.394;2023-04-09T00:26:11;94298.35;;;3.20;79.48
64211;BME280;50528;48.514;14.394;2023-04-09T00:26:45;94296.49;;;3.21;79.44
64211;BME280;50528;48.514;14.394;2023-04-09T00:27:18;94297.90;;;3.23;79.43
64211;BME280;50528;48.514;14.394;2023-04-09T00:27:52;94296.11;;;3.23;79.52
64211;BME280;50528;48.514;14.394;2023-04-09T00:28:25;94299.93;;;3.23;79.48
64211;BME280;50528;48.514;14.394;2023-04-09T00:28:59;94300.59;;;3.26;79.51
64211;BME280;50528;48.514;14.394;2023-04-09T00:29:32;94304.04;;;3.27;79.51
64211;BME280;50528;48.514;14.394;2023-04-09T00:30:06;94301.85;;;3.28;79.52
64211;BME280;50528;48.514;14.394;2023-04-09T00:30:40;94302.92;;;3.29;79.49
64211;BME280;50528;48.514;14.394;2023-04-09T00:31:14;94297.81;;;3.30;79.52
64211;BME280;50528;48.514;14.394;2023-04-09T00:31:47;94301.97;;;3.30;79.60
64211;BME280;50528;48.514;14.394;2023-04-09T00:32:21;94304.09;;;3.31;79.58
64211;BME280;50528;48.514;14.394;2023-04-09T00:32:54;94299.14;;;3.32;79.67
64211;BME280;50528;48.514;14.394;2023-04-09T00:33:29;94302.48;;;3.33;79.70
64211;BME280;50528;48.514;14.394;2023-04-09T00:34:02;94301.23;;;3.33;79.65
64211;BME280;50528;48.514;14.394;2023-04-09T00:34:36;94302.67;;;3.33;79.71
64211;BME280;50528;48.514;14.394;2023-04-09T00:35:10;94304.03;;;3.33;79.63
64211;BME280;50528;48.514;14.394;2023-04-09T00:35:44;94306.92;;;3.34;79.67
64211;BME280;50528;48.514;14.394;2023-04-09T00:36:18;94302.16;;;3.33;79.68
64211;BME280;50528;48.514;14.394;2023-04-09T00:36:51;94302.92;;;3.34;79.78
64211;BME280;50528;48.514;14.394;2023-04-09T00:37:25;94305.13;;;3.37;79.72
64211;BME280;50528;48.514;14.394;2023-04-09T00:37:58;94301.80;;;3.37;79.82
64211;BME280;50528;48.514;14.394;2023-04-09T00:38:32;94305.66;;;3.38;79.81
64211;BME280;50528;48.514;14.394;2023-04-09T00:39:05;94300.67;;;3.39;79.84
64211;BME280;50528;48.514;14.394;2023-04-09T00:39:39;94303.75;;;3.39;79.83
64211;BME280;50528;48.514;14.394;2023-04-09T00:40:13;94302.20;;;3.40;79.81
64211;BME280;50528;48.514;14.394;2023-04-09T00:40:50;94303.88;;;3.40;79.87
64211;BME280;50528;48.514;14.394;2023-04-09T00:41:23;94303.16;;;3.40;79.83
64211;BME280;50528;48.514;14.394;2023-04-09T00:41:59;94302.13;;;3.40;79.88
64211;BME280;50528;48.514;14.394;2023-04-09T00:42:36;94301.80;;;3.41;79.81
64211;BME280;50528;48.514;14.394;2023-04-09T00:43:09;94301.64;;;3.41;79.77
64211;BME280;50528;48.514;14.394;2023-04-09T00:43:44;94302.27;;;3.42;79.81
64211;BME280;50528;48.514;14.394;2023-04-09T00:44:18;94305.40;;;3.43;79.82
64211;BME280;50528;48.514;14.394;2023-04-09T00:44:52;94302.44;;;3.43;79.83
64211;BME280;50528;48.514;14.394;2023-04-09T00:45:25;94301.65;;;3.44;79.84
64211;BME280;50528;48.514;14.394;2023-04-09T00:46:00;94300.77;;;3.44;79.81
64211;BME280;50528;48.514;14.394;2023-04-09T00:46:34;94299.50;;;3.44;79.79
64211;BME280;50528;48.514;14.394;2023-04-09T00:47:07;94300.75;;;3.45;79.89
64211;BME280;50528;48.514;14.394;2023-04-09T00:47:41;94295.76;;;3.45;79.91
64211;BME280;50528;48.514;14.394;2023-04-09T00:48:17;94300.52;;;3.49;79.85
64211;BME280;50528;48.514;14.394;2023-04-09T00:48:51;94297.64;;;3.47;79.89
64211;BME280;50528;48.514;14.394;2023-04-09T00:49:26;94297.58;;;3.44;79.94
64211;BME280;50528;48.514;14.394;2023-04-09T00:50:01;94294.63;;;3.44;79.93
64211;BME280;50528;48.514;14.394;2023-04-09T00:50:35;94294.27;;;3.45;79.89
64211;BME280;50528;48.514;14.394;2023-04-09T00:51:09;94293.60;;;3.42;79.88
64211;BME280;50528;48.514;14.394;2023-04-09T00:51:45;94292.60;;;3.40;80.08
64211;BME280;50528;48.514;14.394;2023-04-09T00:52:19;94294.27;;;3.39;79.90
64211;BME280;50528;48.514;14.394;2023-04-09T00:52:53;94288.51;;;3.36;80.10
64211;BME280;50528;48.514;14.394;2023-04-09T00:53:27;94291.33;;;3.34;80.24
64211;BME280;50528;48.514;14.394;2023-04-09T00:54:01;94290.90;;;3.31;80.31
64211;BME280;50528;48.514;14.394;2023-04-09T00:54:35;94291.95;;;3.32;80.34
64211;BME280;50528;48.514;14.394;2023-04-09T00:55:09;94291.30;;;3.29;80.27
64211;BME280;50528;48.514;14.394;2023-04-09T00:55:43;94287.65;;;3.27;80.27
64211;BME280;50528;48.514;14.394;2023-04-09T00:56:19;94289.64;;;3.26;80.41
64211;BME280;50528;48.514;14.394;2023-04-09T00:56:54;94289.30;;;3.28;80.55
64211;BME280;50528;48.514;14.394;2023-04-09T00:57:29;94290.23;;;3.28;80.52
64211;BME280;50528;48.514;14.394;2023-04-09T00:58:03;94289.55;;;3.28;80.53
64211;BME280;50528;48.514;14.394;2023-04-09T00:58:39;94290.98;;;3.28;80.61
64211;BME280;50528;48.514;14.394;2023-04-09T00:59:12;94283.64;;;3.24;80.51
64211;BME280;50528;48.514;14.394;2023-04-09T00:59:47;94290.04;;;3.24;80.58
64211;BME280;50528;48.514;14.394;2023-04-09T01:00:20;94291.75;;;3.24;80.67
64211;BME280;50528;48.514;14.394;2023-04-09T01:00:54;94287.44;;;3.26;80.69
64211;BME280;50528;48.514;14.394;2023-04-09T01:01:28;94291.66;;;3.38;80.57
64211;BME280;50528;48.514;14.394;2023-04-09T01:02:01;94294.81;;;3.35;80.56
64211;BME280;50528;48.514;14.394;2023-04-09T01:02:39;94292.35;;;3.32;80.59
64211;BME280;50528;48.514;14.394;2023-04-09T01:03:13;94293.23;;;3.26;80.74
64211;BME280;50528;48.514;14.394;2023-04-09T01:03:48;94295.27;;;3.23;80.80
64211;BME280;50528;48.514;14.394;2023-04-09T01:04:22;94296.13;;;3.22;80.92
64211;BME280;50528;48.514;14.394;2023-04-09T01:04:57;94293.37;;;3.25;80.98
64211;BME280;50528;48.514;14.394;2023-04-09T01:06:51;94292.86;;;3.16;81.01
64211;BME280;50528;48.514;14.394;2023-04-09T01:08:37;94297.13;;;3.16;81.24
64211;BME280;50528;48.514;14.394;2023-04-09T01:09:21;94296.03;;;3.14;81.26
64211;BME280;50528;48.514;14.394;2023-04-09T01:11:25;94291.25;;;3.09;81.52
64211;BME280;50528;48.514;14.394;2023-04-09T01:13:03;94293.67;;;3.02;81.67
64211;BME280;50528;48.514;14.394;2023-04-09T01:13:58;94293.88;;;2.97;81.92
64211;BME280;50528;48.514;14.394;2023-04-09T01:14:38;94291.20;;;2.96;82.11
64211;BME280;50528;48.514;14.394;2023-04-09T01:15:24;94292.90;;;2.95;81.96
64211;BME280;50528;48.514;14.394;2023-04-09T01:16:00;94292.02;;;2.95;82.09
64211;BME280;50528;48.514;14.394;2023-04-09T01:16:36;94289.80;;;2.96;82.11
64211;BME280;50528;48.514;14.394;2023-04-09T01:17:26;94290.48;;;2.99;81.97
64211;BME280;50528;48.514;14.394;2023-04-09T01:18:06;94290.28;;;2.96;82.05
64211;BME280;50528;48.514;14.394;2023-04-09T01:18:55;94290.79;;;2.99;81.99
64211;BME280;50528;48.514;14.394;2023-04-09T01:19:53;94294.44;;;3.02;82.45
64211;BME280;50528;48.514;14.394;2023-04-09T01:20:38;94295.95;;;2.94;82.77
64211;BME280;50528;48.514;14.394;2023-04-09T01:21:15;94295.14;;;2.94;82.97
64211;BME280;50528;48.514;14.394;2023-04-09T01:21:52;94291.43;;;2.94;82.69
64211;BME280;50528;48.514;14.394;2023-04-09T01:25:00;94298.98;;;2.87;82.80
64211;BME280;50528;48.514;14.394;2023-04-09T01:27:04;94299.23;;;2.91;82.56
64211;BME280;50528;48.514;14.394;2023-04-09T01:28:24;94303.08;;;2.92;82.39
64211;BME280;50528;48.514;14.394;2023-04-09T01:29:01;94300.95;;;2.94;82.31
64211;BME280;50528;48.514;14.394;2023-04-09T01:29:41;94301.79;;;2.97;82.34
64211;BME280;50528;48.514;14.394;2023-04-09T01:30:18;94296.47;;;3.00;82.29
64211;BME280;50528;48.514;14.394;2023-04-09T01:30:57;94299.04;;;3.03;82.32
64211;BME280;50528;48.514;14.394;2023-04-09T01:31:35;94300.66;;;3.05;82.30
64211;BME280;50528;48.514;14.394;2023-04-09T01:32:10;94300.90;;;3.07;82.31
64211;BME280;50528;48.514;14.394;2023-04-09T01:32:44;94298.00;;;3.08;82.31
64211;BME280;50528;48.514;14.394;2023-04-09T01:33:19;94301.05;;;3.10;82.28
64211;BME280;50528;48.514;14.394;2023-04-09T01:33:54;94295.83;;;3.12;82.37
64211;BME280;50528;48.514;14.394;2023-04-09T01:34:28;94290.98;;;3.11;82.39
64211;BME280;50528;48.514;14.394;2023-04-09T01:35:03;94293.21;;;3.16;82.46
64211;BME280;50528;48.514;14.394;2023-04-09T01:35:38;94295.63;;;3.17;82.40
64211;BME280;50528;48.514;14.394;2023-04-09T01:36:13;94293.67;;;3.18;82.31
64211;BME280;50528;48.514;14.394;2023-04-09T01:36:51;94295.80;;;3.20;82.39
64211;BME280;50528;48.514;14.394;2023-04-09T01:37:29;94294.84;;;3.21;82.61
64211;BME280;50528;48.514;14.394;2023-04-09T01:38:03;94291.18;;;3.22;82.34
64211;BME280;50528;48.514;14.394;2023-04-09T01:38:41;94289.27;;;3.22;82.30
64211;BME280;50528;48.514;14.394;2023-04-09T01:39:15;94289.30;;;3.25;82.33
64211;BME280;50528;48.514;14.394;2023-04-09T01:39:51;94287.86;;;3.24;82.27
64211;BME280;50528;48.514;14.394;2023-04-09T01:40:26;94289.65;;;3.26;82.41
64211;BME280;50528;48.514;14.394;2023-04-09T01:41:00;94281.11;;;3.22;82.32
64211;BME280;50528;48.514;14.394;2023-04-09T01:41:36;94293.02;;;3.30;82.25
64211;BME280;50528;48.514;14.394;2023-04-09T01:42:11;94293.05;;;3.29;82.22
64211;BME280;50528;48.514;14.394;2023-04-09T01:42:46;94291.59;;;3.31;82.21
64211;BME280;50528;48.514;14.394;2023-04-09T01:43:20;94292.67;;;3.33;82.27
64211;BME280;50528;48.514;14.394;2023-04-09T01:43:55;94292.92;;;3.33;82.25
64211;BME280;50528;48.514;14.394;2023-04-09T01:44:31;94294.95;;;3.35;82.24
64211;BME280;50528;48.514;14.394;2023-04-09T01:45:05;94296.16;;;3.36;82.32
64211;BME280;50528;48.514;14.394;2023-04-09T01:45:46;94297.81;;;3.37;82.34
64211;BME280;50528;48.514;14.394;2023-04-09T01:46:20;94299.70;;;3.39;82.31
64211;BME280;50528;48.514;14.394;2023-04-09T01:46:57;94297.20;;;3.39;82.26
64211;BME280;50528;48.514;14.394;2023-04-09T01:47:31;94296.02;;;3.38;82.30
64211;BME280;50528;48.514;14.394;2023-04-09T01:48:05;94298.29;;;3.40;82.35
64211;BME280;50528;48.514;14.394;2023-04-09T01:48:39;94298.73;;;3.41;82.35
64211;BME280;50528;48.514;14.394;2023-04-09T01:50:42;94296.59;;;3.40;82.10
64211;BME280;50528;48.514;14.394;2023-04-09T01:51:16;94295.52;;;3.35;82.08
64211;BME280;50528;48.514;14.394;2023-04-09T01:51:50;94302.25;;;3.35;82.15
64211;BME280;50528;48.514;14.394;2023-04-09T01:52:26;94300.26;;;3.36;82.06
64211;BME280;50528;48.514;14.394;2023-04-09T01:53:00;94297.94;;;3.35;82.08
64211;BME280;50528;48.514;14.394;2023-04-09T01:53:33;94296.35;;;3.33;82.15
64211;BME280;50528;48.514;14.394;2023-04-09T01:54:07;94297.22;;;3.38;82.12
64211;BME280;50528;48.514;14.394;2023-04-09T01:54:41;94296.42;;;3.37;82.16
64211;BME280;50528;48.514;14.394;2023-04-09T01:55:15;94297.02;;;3.38;82.19
64211;BME280;50528;48.514;14.394;2023-04-09T01:55:48;94295.65;;;3.36;82.29
64211;BME280;50528;48.514;14.394;2023-04-09T01:56:22;94297.98;;;3.38;82.25
64211;BME280;50528;48.514;14.394;2023-04-09T01:56:56;94294.36;;;3.40;82.24
64211;BME280;50528;48.514;14.394;2023-04-09T01:57:30;94295.67;;;3.40;82.31
64211;BME280;50528;48.514;14.394;2023-04-09T01:58:06;94298.52;;;3.41;82.25
64211;BME280;50528;48.514;14.394;2023-04-09T01:58:40;94296.53;;;3.42;82.35
64211;BME280;50528;48.514;14.394;2023-04-09T01:59:13;94297.39;;;3.42;82.53
64211;BME280;50528;48.514;14.394;2023-04-09T01:59:47;94296.98;;;3.41;82.38
64211;BME280;50528;48.514;14.394;2023-04-09T02:00:23;94292.25;;;3.40;82.39
64211;BME280;50528;48.514;14.394;2023-04-09T02:01:08;94297.29;;;3.41;82.39
64211;BME280;50528;48.514;14.394;2023-04-09T02:01:46;94294.00;;;3.39;82.39
64211;BME280;50528;48.514;14.394;2023-04-09T02:02:29;94291.84;;;3.39;82.38
64211;BME280;50528;48.514;14.394;2023-04-09T02:03:42;94294.41;;;3.41;82.45
64211;BME280;50528;48.514;14.394;2023-04-09T02:04:35;94292.41;;;3.41;82.47
64211;BME280;50528;48.514;14.394;2023-04-09T02:05:11;94292.73;;;3.42;82.48
64211;BME280;50528;48.514;14.394;2023-04-09T02:08:06;94294.13;;;3.33;83.00
64211;BME280;50528;48.514;14.394;2023-04-09T02:08:46;94294.86;;;3.34;82.76
64211;BME280;50528;48.514;14.394;2023-04-09T02:09:21;94298.70;;;3.36;82.87
64211;BME280;50528;48.514;14.394;2023-04-09T02:09:58;94295.45;;;3.37;82.69
64211;BME280;50528;48.514;14.394;2023-04-09T02:10:34;94288.70;;;3.37;82.72
64211;BME280;50528;48.514;14.394;2023-04-09T02:11:08;94293.59;;;3.39;82.83
64211;BME280;50528;48.514;14.394;2023-04-09T02:11:46;94292.48;;;3.40;82.84
64211;BME280;50528;48.514;14.394;2023-04-09T02:12:21;94293.69;;;3.40;82.81
64211;BME280;50528;48.514;14.394;2023-04-09T02:12:57;94292.58;;;3.40;82.88
64211;BME280;50528;48.514;14.394;2023-04-09T02:13:31;94290.85;;;3.40;82.84
64211;BME280;50528;48.514;14.394;2023-04-09T02:14:08;94290.13;;;3.42;82.88
64211;BME280;50528;48.514;14.394;2023-04-09T02:14:45;94288.40;;;3.42;82.92
64211;BME280;50528;48.514;14.394;2023-04-09T02:15:20;94292.58;;;3.41;82.85
64211;BME280;50528;48.514;14.394;2023-04-09T02:15:55;94288.17;;;3.42;82.95
64211;BME280;50528;48.514;14.394;2023-04-09T02:16:30;94290.73;;;3.42;82.91
64211;BME280;50528;48.514;14.394;2023-04-09T02:17:04;94288.69;;;3.43;82.98
64211;BME280;50528;48.514;14.394;2023-04-09T02:17:38;94285.42;;;3.43;82.94
64211;BME280;50528;48.514;14.394;2023-04-09T02:18:25;94288.32;;;3.45;82.96
64211;BME280;50528;48.514;14.394;2023-04-09T02:19:02;94288.59;;;3.44;82.83
64211;BME280;50528;48.514;14.394;2023-04-09T02:19:42;94288.27;;;3.45;82.90
64211;BME280;50528;48.514;14.394;2023-04-09T02:20:17;94284.69;;;3.46;82.87
64211;BME280;50528;48.514;14.394;2023-04-09T02:20:51;94288.41;;;3.43;82.82
64211;BME280;50528;48.514;14.394;2023-04-09T02:21:26;94288.06;;;3.44;82.89
64211;BME280;50528;48.514;14.394;2023-04-09T02:22:03;94290.59;;;3.45;82.93
64211;BME280;50528;48.514;14.394;2023-04-09T02:22:37;94290.92;;;3.48;82.98
64211;BME280;50528;48.514;14.394;2023-04-09T02:23:11;94292.45;;;3.48;82.90
64211;BME280;50528;48.514;14.394;2023-04-09T02:23:44;94293.64;;;3.48;82.98
64211;BME280;50528;48.514;14.394;2023-04-09T02:24:18;94288.20;;;3.47;82.91
64211;BME280;50528;48.514;14.394;2023-04-09T02:24:51;94291.53;;;3.50;82.95
64211;BME280;50528;48.514;14.394;2023-04-09T02:25:25;94292.78;;;3.51;82.92
64211;BME280;50528;48.514;14.394;2023-04-09T02:26:00;94288.84;;;3.52;82.95
64211;BME280;50528;48.514;14.394;2023-04-09T02:26:33;94287.07;;;3.51;82.96
64211;BME280;50528;48.514;14.394;2023-04-09T02:27:08;94288.64;;;3.55;82.89
64211;BME280;50528;48.514;14.394;2023-04-09T02:27:43;94293.81;;;3.56;82.94
64211;BME280;50528;48.514;14.394;2023-04-09T02:28:17;94291.17;;;3.61;82.91
64211;BME280;50528;48.514;14.394;2023-04-09T02:28:50;94289.23;;;3.58;82.91
64211;BME280;50528;48.514;14.394;2023-04-09T02:29:24;94293.98;;;3.59;82.97
64211;BME280;50528;48.514;14.394;2023-04-09T02:29:57;94290.34;;;3.59;82.89
64211;BME280;50528;48.514;14.394;2023-04-09T02:30:31;94294.30;;;3.59;83.00
64211;BME280;50528;48.514;14.394;2023-04-09T02:31:05;94291.66;;;3.60;82.93
64211;BME280;50528;48.514;14.394;2023-04-09T02:31:39;94293.30;;;3.60;82.87
64211;BME280;50528;48.514;14.394;2023-04-09T02:32:15;94295.02;;;3.60;82.88
64211;BME280;50528;48.514;14.394;2023-04-09T02:32:50;94291.99;;;3.62;82.92
64211;BME280;50528;48.514;14.394;2023-04-09T02:33:24;94292.61;;;3.63;82.86
64211;BME280;50528;48.514;14.394;2023-04-09T02:33:58;94290.21;;;3.63;82.81
64211;BME280;50528;48.514;14.394;2023-04-09T02:34:31;94294.00;;;3.65;82.87
64211;BME280;50528;48.514;14.394;2023-04-09T02:35:05;94292.05;;;3.67;82.94
64211;BME280;50528;48.514;14.394;2023-04-09T02:35:39;94292.04;;;3.69;82.89
64211;BME280;50528;48.514;14.394;2023-04-09T02:36:12;94288.57;;;3.70;82.82
64211;BME280;50528;48.514;14.394;2023-04-09T02:36:46;94287.31;;;3.72;82.89
64211;BME280;50528;48.514;14.394;2023-04-09T02:37:19;94286.16;;;3.73;82.87
64211;BME280;50528;48.514;14.394;2023-04-09T02:37:52;94288.36;;;3.74;82.87
64211;BME280;50528;48.514;14.394;2023-04-09T02:38:26;94285.44;;;3.73;82.85
64211;BME280;50528;48.514;14.394;2023-04-09T02:39:00;94284.85;;;3.74;82.90
64211;BME280;50528;48.514;14.394;2023-04-09T02:39:34;94284.53;;;3.74;82.74
64211;BME280;50528;48.514;14.394;2023-04-09T02:40:08;94287.13;;;3.74;82.70
64211;BME280;50528;48.514;14.394;2023-04-09T02:40:41;94287.61;;;3.74;82.79
64211;BME280;50528;48.514;14.394;2023-04-09T02:41:15;94285.94;;;3.75;82.74
64211;BME280;50528;48.514;14.394;2023-04-09T02:41:48;94288.86;;;3.76;82.75
64211;BME280;50528;48.514;14.394;2023-04-09T02:42:22;94284.21;;;3.78;82.73
64211;BME280;50528;48.514;14.394;2023-04-09T02:42:56;94287.27;;;3.79;82.68
64211;BME280;50528;48.514;14.394;2023-04-09T02:43:30;94287.40;;;3.81;82.71
64211;BME280;50528;48.514;14.394;2023-04-09T02:44:03;94289.09;;;3.82;82.63
64211;BME280;50528;48.514;14.394;2023-04-09T02:44:37;94288.81;;;3.82;82.64
64211;BME280;50528;48.514;14.394;2023-04-09T02:45:10;94276.98;;;3.76;82.65
64211;BME280;50528;48.514;14.394;2023-04-09T02:45:47;94288.52;;;3.85;82.60
64211;BME280;50528;48.514;14.394;2023-04-09T02:46:20;94287.02;;;3.85;82.59
64211;BME280;50528;48.514;14.394;2023-04-09T02:46:54;94289.93;;;3.86;82.58
64211;BME280;50528;48.514;14.394;2023-04-09T02:47:28;94291.67;;;3.87;82.52
64211;BME280;50528;48.514;14.394;2023-04-09T02:48:03;94287.66;;;3.87;82.55
64211;BME280;50528;48.514;14.394;2023-04-09T02:48:39;94288.23;;;3.87;82.51
64211;BME280;50528;48.514;14.394;2023-04-09T02:49:13;94292.48;;;3.89;82.48
64211;BME280;50528;48.514;14.394;2023-04-09T02:49:46;94286.83;;;3.89;82.44
64211;BME280;50528;48.514;14.394;2023-04-09T02:50:20;94287.58;;;3.86;82.43
64211;BME280;50528;48.514;14.394;2023-04-09T02:50:55;94288.23;;;3.88;82.42
64211;BME280;50528;48.514;14.394;2023-04-09T02:51:29;94287.16;;;3.89;82.41
64211;BME280;50528;48.514;14.394;2023-04-09T02:52:02;94289.64;;;3.88;82.46
64211;BME280;50528;48.514;14.394;2023-04-09T02:52:36;94287.64;;;3.89;82.49
64211;BME280;50528;48.514;14.394;2023-04-09T02:53:09;94287.23;;;3.89;82.39
64211;BME280;50528;48.514;14.394;2023-04-09T02:53:43;94286.71;;;3.89;82.50
64211;BME280;50528;48.514;14.394;2023-04-09T02:54:17;94286.63;;;3.90;82.42
64211;BME280;50528;48.514;14.394;2023-04-09T02:54:51;94282.59;;;3.90;82.49
64211;BME280;50528;48.514;14.394;2023-04-09T02:55:25;94282.70;;;3.91;82.64
64211;BME280;50528;48.514;14.394;2023-04-09T02:55:59;94283.88;;;3.91;82.47
64211;BME280;50528;48.514;14.394;2023-04-09T02:56:33;94280.10;;;3.89;82.51
64211;BME280;50528;48.514;14.394;2023-04-09T02:57:06;94281.27;;;3.91;82.53
64211;BME280;50528;48.514;14.394;2023-04-09T02:57:40;94278.05;;;3.90;82.59
64211;BME280;50528;48.514;14.394;2023-04-09T02:58:14;94276.08;;;3.91;82.51
64211;BME280;50528;48.514;14.394;2023-04-09T02:58:48;94278.73;;;3.90;82.48
64211;BME280;50528;48.514;14.394;2023-04-09T02:59:24;94276.11;;;3.91;82.59
64211;BME280;50528;48.514;14.394;2023-04-09T02:59:58;94278.64;;;3.93;82.49
64211;BME280;50528;48.514;14.394;2023-04-09T03:00:31;94277.52;;;3.92;82.49
64211;BME280;50528;48.514;14.394;2023-04-09T03:01:05;94275.80;;;3.89;82.49
64211;BME280;50528;48.514;14.394;2023-04-09T03:01:38;94277.16;;;3.88;82.49
64211;BME280;50528;48.514;14.394;2023-04-09T03:02:12;94275.98;;;3.86;82.52
64211;BME280;50528;48.514;14.394;2023-04-09T03:02:46;94279.32;;;3.84;82.46
64211;BME280;50528;48.514;14.394;2023-04-09T03:03:19;94277.81;;;3.82;82.50
64211;BME280;50528;48.514;14.394;2023-04-09T03:03:53;94277.33;;;3.83;82.55
64211;BME280;50528;48.514;14.394;2023-04-09T03:04:27;94278.25;;;3.84;82.66
64211;BME280;50528;48.514;14.394;2023-04-09T03:05:00;94276.77;;;3.86;82.66
64211;BME280;50528;48.514;14.394;2023-04-09T03:05:34;94272.81;;;3.85;82.56
64211;BME280;50528;48.514;14.394;2023-04-09T03:06:08;94273.01;;;3.84;82.56
64211;BME280;50528;48.514;14.394;2023-04-09T03:06:41;94273.96;;;3.83;82.52
64211;BME280;50528;48.514;14.394;2023-04-09T03:07:15;94273.27;;;3.84;82.54
64211;BME280;50528;48.514;14.394;2023-04-09T03:07:48;94272.40;;;3.83;82.61
64211;BME280;50528;48.514;14.394;2023-04-09T03:08:22;94271.45;;;3.85;82.55
64211;BME280;50528;48.514;14.394;2023-04-09T03:08:55;94268.41;;;3.83;82.72
64211;BME280;50528;48.514;14.394;2023-04-09T03:09:28;94269.61;;;3.82;82.53
64211;BME280;50528;48.514;14.394;2023-04-09T03:10:03;94271.83;;;3.80;82.57
64211;BME280;50528;48.514;14.394;2023-04-09T03:10:36;94275.85;;;3.78;82.59
64211;BME280;50528;48.514;14.394;2023-04-09T03:11:10;94274.42;;;3.77;82.63
64211;BME280;50528;48.514;14.394;2023-04-09T03:11:43;94270.21;;;3.77;82.69
64211;BME280;50528;48.514;14.394;2023-04-09T03:12:17;94275.30;;;3.78;82.66
64211;BME280;50528;48.514;14.394;2023-04-09T03:12:50;94272.23;;;3.79;82.71
64211;BME280;50528;48.514;14.394;2023-04-09T03:13:26;94272.31;;;3.80;82.74
64211;BME280;50528;48.514;14.394;2023-04-09T03:13:59;94272.42;;;3.79;82.77
64211;BME280;50528;48.514;14.394;2023-04-09T03:14:33;94271.84;;;3.78;82.59
64211;BME280;50528;48.514;14.394;2023-04-09T03:15:07;94272.05;;;3.78;82.71
64211;BME280;50528;48.514;14.394;2023-04-09T03:15:41;94272.73;;;3.78;82.86
64211;BME280;50528;48.514;14.394;2023-04-09T03:16:14;94268.05;;;3.76;82.89
64211;BME280;50528;48.514;14.394;2023-04-09T03:16:48;94271.79;;;3.80;82.84
64211;BME280;50528;48.514;14.394;2023-04-09T03:17:22;94270.51;;;3.79;82.81
64211;BME280;50528;48.514;14.394;2023-04-09T03:17:57;94271.22;;;3.78;82.85
64211;BME280;50528;48.514;14.394;2023-04-09T03:18:31;94270.73;;;3.78;82.86
64211;BME280;50528;48.514;14.394;2023-04-09T03:19:04;94272.38;;;3.78;82.84
64211;BME280;50528;48.514;14.394;2023-04-09T03:19:38;94269.79;;;3.77;82.82